createdAt,value
2023-03-03T00:04:46.210Z,22.45
2023-03-03T00:09:47.786Z,21.95
2023-03-03T00:14:49.258Z,22.60
2023-03-03T00:19:51.578Z,22.35
2023-03-03T00:24:53.941Z,21.15
2023-03-03T00:29:58.171Z,22.25
2023-03-03T00:35:24.583Z,22.38
2023-03-03T00:40:36.397Z,21.85
2023-03-03T00:45:43.933Z,20.20
2023-03-03T00:50:45.412Z,18.67
2023-03-03T00:55:48.412Z,20.50
2023-03-03T01:00:51.931Z,20.58
2023-03-03T01:05:54.058Z,20.23
2023-03-03T01:10:58.861Z,21.70
2023-03-03T01:16:02.190Z,21.23
2023-03-03T01:21:04.076Z,19.90
2023-03-03T01:26:05.747Z,20.95
2023-03-03T01:31:07.417Z,20.30
2023-03-03T01:36:09.356Z,21.48
2023-03-03T01:41:10.771Z,19.75
2023-03-03T01:46:50.964Z,19.52
2023-03-03T01:51:56.773Z,20.58
2023-03-03T01:57:03.281Z,21.15
2023-03-03T02:02:05.449Z,22.92
2023-03-03T02:07:11.133Z,19.67
2023-03-03T02:12:15.452Z,18.80
2023-03-03T02:17:17.253Z,21.35
2023-03-03T02:22:27.042Z,21.13
2023-03-03T02:27:31.645Z,22.25
2023-03-03T02:32:33.073Z,23.35
2023-03-03T02:37:34.965Z,20.30
2023-03-03T02:42:36.724Z,26.95
2023-03-03T02:47:38.211Z,23.38
2023-03-03T02:52:39.634Z,26.70
2023-03-03T02:57:41.109Z,25.58
2023-03-03T03:02:42.537Z,27.13
2023-03-03T03:07:43.957Z,23.67
2023-03-03T03:12:45.376Z,27.23
2023-03-03T03:17:46.845Z,25.15
2023-03-03T03:22:48.359Z,26.90
2023-03-03T03:34:11.555Z,21.73
2023-03-03T03:39:13.355Z,22.35
2023-03-03T03:44:14.949Z,21.52
2023-03-03T03:49:16.634Z,23.42
2023-03-03T03:54:18.126Z,22.25
2023-03-03T03:59:19.525Z,20.38
2023-03-03T04:04:21.076Z,25.42
2023-03-03T04:09:22.541Z,20.15
2023-03-03T04:14:23.987Z,22.55
2023-03-03T04:19:25.504Z,20.90
2023-03-03T04:24:26.922Z,19.25
2023-03-03T04:29:28.544Z,20.42
2023-03-03T04:34:29.966Z,20.90
2023-03-03T04:39:32.820Z,20.75
2023-03-03T04:44:34.446Z,22.60
2023-03-03T04:49:36.446Z,24.60
2023-03-03T04:54:38.333Z,20.58
2023-03-03T04:59:39.893Z,20.00
2023-03-03T05:04:41.513Z,23.88
2023-03-03T05:09:43.202Z,22.00
2023-03-03T05:14:44.782Z,24.23
2023-03-03T05:19:46.225Z,25.17
2023-03-03T05:24:49.494Z,21.58
2023-03-03T05:29:51.454Z,25.42
2023-03-03T05:34:54.189Z,21.40
2023-03-03T05:39:55.731Z,21.60
2023-03-03T05:44:57.197Z,18.92
2023-03-03T05:49:58.859Z,22.88
2023-03-03T05:55:00.313Z,20.08
2023-03-03T06:00:06.283Z,19.98
2023-03-03T06:05:08.851Z,21.33
2023-03-03T06:10:11.217Z,20.20
2023-03-03T06:15:12.746Z,20.85
2023-03-03T06:20:14.288Z,21.15
2023-03-03T06:25:16.622Z,23.05
2023-03-03T06:30:18.988Z,21.38
2023-03-03T06:35:20.713Z,23.10
2023-03-03T06:40:22.563Z,24.67
2023-03-03T06:45:24.273Z,23.45
2023-03-03T06:50:25.703Z,20.80
2023-03-03T06:55:27.274Z,23.10
2023-03-03T07:00:31.265Z,22.45
2023-03-03T07:05:34.508Z,21.60
2023-03-03T07:10:36.135Z,22.10
2023-03-03T07:15:37.859Z,23.38
2023-03-03T07:20:41.090Z,21.58
2023-03-03T07:25:46.316Z,22.90
2023-03-03T07:30:47.946Z,22.15
2023-03-03T07:35:50.344Z,23.17
2023-03-03T07:40:54.627Z,21.73
2023-03-03T07:46:35.305Z,25.30
2023-03-03T07:56:41.166Z,25.60
2023-03-03T08:01:46.223Z,24.17
2023-03-03T08:06:59.399Z,26.00
2023-03-03T08:12:07.096Z,26.23
2023-03-03T08:17:25.201Z,26.08
2023-03-03T08:22:36.197Z,26.17
2023-03-03T08:27:37.738Z,25.67
2023-03-03T08:32:39.356Z,25.42
2023-03-03T08:37:40.843Z,23.73
2023-03-03T08:42:42.603Z,23.10
2023-03-03T08:47:44.896Z,27.73
2023-03-03T08:52:47.317Z,24.65
2023-03-03T08:57:48.863Z,24.48
2023-03-03T09:02:51.051Z,24.88
2023-03-03T09:07:53.021Z,24.60
2023-03-03T09:12:58.225Z,26.02
2023-03-03T09:18:08.384Z,25.05
2023-03-03T09:23:31.190Z,25.15
2023-03-03T09:28:33.147Z,24.73
2023-03-03T09:33:43.954Z,24.95
2023-03-03T09:38:46.195Z,25.27
2023-03-03T09:44:18.510Z,24.88
2023-03-03T09:49:43.674Z,23.80
2023-03-03T09:55:03.568Z,23.35
2023-03-03T10:00:20.138Z,22.97
2023-03-03T10:05:34.789Z,22.67
2023-03-03T10:10:56.728Z,23.00
2023-03-03T10:16:29.478Z,23.17
2023-03-03T10:21:48.457Z,24.35
2023-03-03T10:27:13.578Z,21.67
2023-03-03T10:32:34.148Z,21.27
2023-03-03T10:37:47.562Z,22.75
2023-03-03T10:43:07.761Z,22.27
2023-03-03T10:48:31.029Z,22.60
2023-03-03T10:53:44.076Z,22.98
2023-03-03T10:59:11.216Z,21.58
2023-03-03T11:04:43.625Z,20.90
2023-03-03T11:10:05.893Z,20.10
2023-03-03T11:15:34.408Z,22.20
2023-03-03T11:20:43.117Z,20.33
2023-03-03T11:25:58.793Z,20.20
2023-03-03T11:31:19.658Z,22.02
2023-03-03T11:36:27.600Z,19.67
2023-03-03T11:41:39.732Z,20.88
2023-03-03T11:46:48.588Z,19.67
2023-03-03T11:52:03.041Z,19.08
2023-03-03T11:57:36.338Z,20.27
2023-03-03T12:03:02.310Z,18.58
2023-03-03T12:08:22.512Z,18.25
2023-03-03T12:13:36.722Z,18.40
2023-03-03T12:19:05.513Z,18.88
2023-03-03T12:24:25.432Z,19.88
2023-03-03T12:29:55.082Z,19.13
2023-03-03T12:35:12.311Z,19.88
2023-03-03T12:40:21.201Z,18.92
2023-03-03T12:45:44.018Z,19.92
2023-03-03T12:51:10.951Z,21.00
2023-03-03T12:56:18.620Z,21.02
2023-03-03T13:01:42.954Z,21.25
2023-03-03T13:06:59.858Z,20.80
2023-03-03T13:12:19.975Z,20.88
2023-03-03T13:17:21.530Z,20.48
2023-03-03T13:22:38.066Z,19.45
2023-03-03T13:27:45.564Z,20.23
2023-03-03T13:33:11.587Z,21.25
2023-03-03T13:38:18.383Z,21.80
2023-03-03T13:43:24.884Z,20.58
2023-03-03T13:48:44.815Z,20.67
2023-03-03T13:54:24.921Z,19.13
2023-03-03T13:59:32.392Z,20.52
2023-03-03T14:04:54.197Z,20.65
2023-03-03T14:10:17.087Z,19.23
2023-03-03T14:15:26.307Z,22.55
2023-03-03T14:20:34.727Z,21.60
2023-03-03T14:26:05.254Z,20.77
2023-03-03T14:36:30.179Z,20.05
2023-03-03T14:41:39.626Z,19.92
2023-03-03T14:46:41.790Z,21.52
2023-03-03T14:51:49.116Z,22.58
2023-03-03T14:56:58.877Z,22.35
2023-03-03T15:02:28.811Z,23.83
2023-03-03T15:07:36.378Z,20.83
2023-03-03T15:12:42.185Z,21.42
2023-03-03T15:17:55.328Z,21.75
2023-03-03T15:23:32.554Z,21.80
2023-03-03T15:28:46.173Z,21.55
2023-03-03T15:33:55.963Z,22.38
2023-03-03T15:39:22.150Z,22.13
2023-03-03T15:44:38.406Z,19.63
2023-03-03T15:49:52.995Z,22.20
2023-03-03T15:55:17.309Z,20.88
2023-03-03T16:00:26.894Z,21.42
2023-03-03T16:05:53.989Z,19.45
2023-03-03T16:11:05.731Z,19.73
2023-03-03T16:16:25.643Z,19.35
2023-03-03T16:21:48.991Z,19.73
2023-03-03T16:27:12.668Z,20.27
2023-03-03T16:32:40.203Z,19.42
2023-03-03T16:38:19.501Z,20.92
2023-03-03T16:43:49.289Z,20.40
2023-03-03T16:49:02.507Z,22.33
2023-03-03T16:54:36.434Z,21.70
2023-03-03T17:00:25.465Z,22.50
2023-03-03T17:05:40.049Z,18.52
2023-03-03T17:11:00.110Z,21.55
2023-03-03T17:16:08.494Z,22.20
2023-03-03T17:21:25.022Z,20.67
2023-03-03T17:26:40.467Z,23.67
2023-03-03T17:32:12.134Z,28.15
2023-03-03T17:37:29.194Z,24.73
2023-03-03T17:42:39.888Z,24.52
2023-03-03T17:48:06.080Z,21.77
2023-03-03T17:53:25.752Z,23.95
2023-03-03T17:58:53.262Z,27.00
2023-03-03T18:04:15.792Z,29.52
2023-03-03T18:09:24.976Z,23.75
2023-03-03T18:14:54.375Z,22.13
2023-03-03T18:20:21.403Z,24.95
2023-03-03T18:26:11.926Z,21.02
2023-03-03T18:31:26.592Z,21.90
2023-03-03T18:36:27.997Z,21.73
2023-03-03T18:42:09.027Z,23.52
2023-03-03T18:47:11.203Z,20.77
2023-03-03T18:52:26.134Z,20.77
2023-03-03T18:57:28.110Z,21.73
2023-03-03T19:02:35.930Z,22.02
2023-03-03T19:07:40.364Z,20.08
2023-03-03T19:12:56.212Z,18.20
2023-03-03T19:18:18.316Z,22.08
2023-03-03T19:23:49.650Z,22.80
2023-03-03T19:28:59.180Z,21.23
2023-03-03T19:34:15.873Z,18.48
2023-03-03T19:39:46.104Z,24.35
2023-03-03T19:45:14.663Z,30.30
2023-03-03T19:50:18.250Z,21.67
2023-03-03T19:55:40.366Z,18.65
2023-03-03T20:00:46.032Z,24.27
2023-03-03T20:06:02.669Z,21.55
2023-03-03T20:11:15.935Z,33.80
2023-03-03T20:16:41.809Z,26.38
2023-03-03T20:22:09.000Z,26.45
2023-03-03T20:27:24.677Z,26.38
2023-03-03T20:32:42.434Z,25.15
2023-03-03T20:37:57.646Z,25.42
2023-03-03T20:43:14.353Z,27.27
2023-03-03T20:48:27.967Z,23.42
2023-03-03T20:53:51.164Z,20.77
2023-03-03T20:59:06.184Z,21.42
2023-03-03T21:04:18.604Z,22.75
2023-03-03T21:09:41.113Z,20.52
2023-03-03T21:14:42.553Z,21.75
2023-03-03T21:19:44.471Z,23.77
2023-03-03T21:24:53.459Z,19.23
2023-03-03T21:30:14.036Z,17.35
2023-03-03T21:35:18.392Z,20.00
2023-03-03T21:40:26.295Z,20.35
2023-03-03T21:45:27.861Z,20.67
2023-03-03T21:50:32.543Z,19.10
2023-03-03T21:55:33.979Z,19.40
2023-03-03T22:00:35.647Z,20.90
2023-03-03T22:05:37.142Z,19.40
2023-03-03T22:10:39.262Z,22.33
2023-03-03T22:15:40.712Z,18.88
2023-03-03T22:20:42.122Z,20.02
2023-03-03T22:25:43.519Z,17.65
2023-03-03T22:30:44.991Z,15.82
2023-03-03T22:35:46.576Z,19.27
2023-03-03T22:40:48.066Z,16.58
2023-03-03T22:45:50.525Z,24.38
2023-03-03T22:50:52.592Z,20.83
2023-03-03T22:55:54.366Z,21.48
2023-03-03T23:00:55.900Z,18.77
2023-03-03T23:05:57.318Z,17.95
2023-03-03T23:10:58.741Z,17.45
2023-03-03T23:16:00.369Z,17.83
2023-03-03T23:21:01.861Z,16.63
2023-03-03T23:26:03.476Z,19.38
2023-03-03T23:31:05.261Z,17.52
2023-03-03T23:36:08.250Z,18.52
2023-03-03T23:41:10.835Z,16.92
2023-03-03T23:46:12.497Z,15.27
2023-03-03T23:51:14.020Z,13.35
2023-03-03T23:56:15.407Z,15.43
